Latest Weather Observations for Lucas Heights (ANSTO)

IDN60901

Issued at 6:02 pm EST Saturday 5 September 2026 (issued every 10 minutes, with the page automatically refreshed every 10 minutes)

About weather observations | Map of Sydney area stations | Latest observations for Sydney area | Other Formats
Station Details ID: 066023 Name: LUCAS HEIGHTS (ANSTO) Lat: -34.05 Lon: 150.98 Height: 140.0 m
Data from the previous 72 hours. | See also: Recent months for locations in New South Wales
Date/Time
EST
Temp
°C
App
Temp
°C
Dew
Point
°C
Rel
Hum
%
Delta-T
°C
Wind Press
QNH
hPa
Press
MSL
hPa
Rain since
9am
mm
Dir  Spd
km/h
Gust
km/h
Spd
kts
Gust
kts
05/05:45pm 19.0 16.9 12.5 66 3.7 NW 15 20 8 11 1009.5 - 0.6
05/05:30pm 19.4 17.3 12.4 64 3.9 NW 15 20 8 11 1009.3 - 0.6
05/05:15pm 19.8 16.8 12.6 63 4.1 W 20 33 11 18 1010.2 - 0.6
05/05:00pm 19.4 16.2 13.0 66 3.6 W 22 32 12 17 1010.3 - 0.6
05/04:45pm 19.1 15.8 12.7 66 3.6 W 22 30 12 16 1009.9 - 0.6
05/04:30pm 20.0 14.8 11.5 58 4.7 W 30 50 16 27 1010.5 - 0.6
05/04:15pm 24.1 15.6 9.1 38 8.2 WSW 44 72 24 39 1010.3 - 0.0
05/04:00pm 26.7 18.0 7.8 30 10.2 WSW 43 72 23 39 1008.9 - 0.0
05/03:45pm 28.6 21.7 7.2 26 11.5 W 33 56 18 30 1007.8 - 0.0
05/03:30pm 28.8 20.7 6.9 25 11.8 W 39 63 21 34 1007.5 - 0.0
05/03:15pm 29.0 17.9 6.2 23 12.1 W 54 76 29 41 1007.4 - 0.0
05/03:00pm 29.5 17.9 5.9 22 12.5 W 56 83 30 45 1007.2 - 0.0
05/02:45pm 29.8 19.6 5.4 21 12.8 W 48 72 26 39 1007.0 - 0.0
05/02:30pm 30.3 22.5 5.1 20 13.2 W 35 61 19 33 1006.8 - 0.0
05/02:15pm 31.1 21.7 4.6 18 13.9 W 43 67 23 36 1006.6 - 0.0
05/02:00pm 30.6 24.6 7.2 23 12.7 WNW 28 56 15 30 1006.5 - 0.0
05/01:45pm 29.2 24.5 7.7 26 11.7 NW 22 35 12 19 1006.8 - 0.0
05/01:30pm 28.7 24.1 8.0 27 11.3 NNW 22 39 12 21 1007.2 - 0.0
05/01:15pm 28.2 21.9 7.6 27 11.2 NW 30 48 16 26 1007.7 - 0.0
05/01:00pm 27.8 21.6 7.8 28 10.8 NW 30 43 16 23 1008.0 - 0.0
05/12:45pm 27.3 21.1 7.7 29 10.6 NNW 30 48 16 26 1008.5 - 0.0
05/12:30pm 27.1 20.9 7.8 29 10.4 NNW 30 46 16 25 1009.0 - 0.0
05/12:15pm 27.1 21.2 7.7 29 10.5 NNW 28 44 15 24 1009.6 - 0.0
05/12:00pm 26.8 20.1 7.2 28 10.5 NNW 32 48 17 26 1010.1 - 0.0
05/11:45am 26.5 20.2 7.6 30 10.1 NNW 30 46 16 25 1010.6 - 0.0
05/11:30am 25.9 21.0 8.4 33 9.5 NNW 24 43 13 23 1011.1 - 0.0
05/11:15am 24.9 20.4 8.6 35 8.8 NNW 22 35 12 19 1011.6 - 0.0
05/11:00am 24.0 20.4 8.5 37 8.3 NW 17 24 9 13 1012.1 - 0.0
05/10:45am 23.4 20.3 8.7 39 7.9 NNW 15 28 8 15 1012.6 - 0.0
05/10:30am 22.8 19.6 8.6 40 7.6 NNW 15 22 8 12 1013.1 - 0.0
05/10:15am 22.1 18.5 8.2 41 7.4 NNW 17 28 9 15 1013.7 - 0.0
05/10:00am 21.2 16.5 7.9 42 7.0 NNW 22 32 12 17 1014.2 - 0.0
05/09:45am 20.5 17.1 9.1 48 6.1 NNW 17 30 9 16 1014.3 - 0.0
05/09:30am 19.6 16.9 9.1 50 5.6 NNW 13 22 7 12 1014.8 - 0.0
05/09:15am 18.9 16.1 8.7 51 5.3 NNW 13 20 7 11 1015.2 - 0.0
05/09:00am 18.1 16.1 8.8 54 4.9 NNW 9 17 5 9 1015.5 - 0.0
05/08:45am 17.7 15.8 9.0 56 4.5 NNW 9 19 5 10 1015.8 - 0.0
05/08:30am 16.6 14.2 8.5 58 4.2 NW 11 20 6 11 1016.1 - 0.0
05/08:15am 16.1 12.5 8.3 60 4.0 NW 17 30 9 16 1016.1 - 0.0
05/08:00am 15.6 12.4 8.3 62 3.7 NW 15 22 8 12 1016.1 - 0.0
05/07:45am 15.3 11.7 8.4 63 3.5 NW 17 28 9 15 1016.2 - 0.0
05/07:30am 14.7 11.1 8.5 66 3.1 NW 17 22 9 12 1016.2 - 0.0
05/07:15am 14.3 11.1 8.5 68 2.9 NW 15 22 8 12 1016.3 - 0.0
05/07:00am 13.8 10.9 8.3 69 2.8 NW 13 19 7 10 1016.4 - 0.0
05/06:45am 13.0 9.7 8.2 72 2.4 NW 15 19 8 10 1016.5 - 0.0
05/06:30am 12.3 9.3 7.8 74 2.2 NW 13 19 7 10 1016.6 - 0.0
05/06:15am 12.5 9.9 7.8 73 2.3 NW 11 17 6 9 1016.6 - 0.0
05/06:00am 12.5 9.6 8.0 74 2.2 WNW 13 17 7 9 1016.7 - 0.0
05/05:45am 12.3 9.7 7.6 73 2.3 NW 11 17 6 9 1016.5 - 0.0
05/05:30am 13.0 10.0 7.9 71 2.5 NW 13 17 7 9 1016.6 - 0.0
05/05:15am 13.0 10.0 7.7 70 2.6 NW 13 17 7 9 1016.5 - 0.0
05/05:00am 13.5 10.5 7.9 69 2.8 NW 13 20 7 11 1016.5 - 0.0
05/04:45am 14.0 10.3 8.1 67 3.0 NW 17 20 9 11 1016.5 - 0.0
05/04:30am 14.3 10.7 8.4 67 3.0 NW 17 20 9 11 1016.7 - 0.0
05/04:15am 14.4 10.5 8.8 69 2.9 NW 19 22 10 12 1016.6 - 0.0
05/04:00am 12.9 9.1 8.9 76 2.0 NW 19 20 10 11 1016.6 - 0.0
05/03:45am 11.9 9.1 8.5 80 1.7 NNW 13 17 7 9 1016.6 - 0.0
05/03:30am 11.6 8.7 8.2 79 1.7 NNW 13 15 7 8 1016.6 - 0.0
05/03:15am 12.0 9.5 8.1 77 1.9 NNW 11 17 6 9 1016.7 - 0.0
05/03:00am 13.4 10.4 9.1 75 2.2 NW 15 17 8 9 1017.0 - 0.0
05/02:45am 12.6 9.6 9.2 80 1.7 NW 15 17 8 9 1017.2 - 0.0
05/02:30am 11.6 9.1 8.2 79 1.7 NNW 11 17 6 9 1017.3 - 0.0
05/02:15am 12.0 9.4 7.9 76 2.0 NW 11 17 6 9 1017.7 - 0.0
05/02:00am 13.3 10.5 8.5 72 2.4 NW 13 19 7 10 1018.0 - 0.0
05/01:45am 14.4 11.1 9.5 72 2.5 NW 17 20 9 11 1018.1 - 0.0
05/01:30am 14.0 10.7 9.4 74 2.4 NW 17 20 9 11 1018.3 - 0.0
05/01:15am 14.1 10.8 9.6 74 2.3 NW 17 19 9 10 1018.5 - 0.0
05/01:00am 14.0 10.7 9.6 75 2.3 NNW 17 20 9 11 1018.6 - 0.0
05/12:45am 13.6 10.5 9.0 74 2.3 NNW 15 19 8 10 1018.7 - 0.0
05/12:30am 14.0 12.1 8.9 71 2.6 N 9 11 5 6 1018.7 - 0.0
05/12:15am 14.1 12.1 8.6 69 2.8 N 9 11 5 6 1018.7 - 0.0
05/12:00am 14.0 11.8 7.7 66 3.1 N 9 11 5 6 1018.7 - 0.0
 
Date/Time
EST
Temp
°C
App
Temp
°C
Dew
Point
°C
Rel
Hum
%
Delta-T
°C
Wind Press
QNH
hPa
Press
MSL
hPa
Rain since
9am
mm
Dir  Spd
km/h
Gust
km/h
Spd
kts
Gust
kts
04/11:45pm 14.1 12.1 7.3 63 3.4 N 7 11 4 6 1018.8 - 0.0
04/11:30pm 15.4 13.5 7.4 59 4.0 NW 7 9 4 5 1019.0 - 0.0
04/11:15pm 15.3 13.0 7.4 59 3.9 W 9 11 5 6 1019.2 - 0.0
04/11:00pm 15.2 13.2 7.3 59 3.9 W 7 11 4 6 1019.3 - 0.0
04/10:45pm 15.9 13.2 7.3 56 4.3 W 11 15 6 8 1019.3 - 0.0
04/10:30pm 16.6 13.5 7.4 54 4.6 W 13 17 7 9 1019.6 - 0.0
04/10:15pm 16.8 13.9 8.0 56 4.5 WSW 13 17 7 9 1019.9 - 0.0
04/10:00pm 15.9 13.8 8.2 60 3.9 WSW 9 13 5 7 1020.0 - 0.0
04/09:45pm 15.4 14.0 8.8 65 3.4 SW 6 9 3 5 1020.0 - 0.0
04/09:30pm 15.4 14.0 9.0 65 3.3 SSW 6 9 3 5 1020.0 - 0.0
04/09:15pm 15.7 15.2 9.4 66 3.3 SSW 2 6 1 3 1020.0 - 0.0
04/09:00pm 15.4 14.6 9.6 68 3.0 S 4 7 2 4 1020.0 - 0.0
04/08:45pm 15.3 14.2 9.8 69 2.9 ESE 6 7 3 4 1019.8 - 0.0
04/08:30pm 15.4 14.3 9.8 69 2.9 SE 6 7 3 4 1019.7 - 0.0
04/08:15pm 15.7 14.6 9.9 68 3.0 SE 6 7 3 4 1019.5 - 0.0
04/08:00pm 15.7 14.0 10.0 69 3.0 SSE 9 11 5 6 1019.5 - 0.0
04/07:45pm 15.5 13.8 10.0 70 2.9 SSE 9 13 5 7 1019.3 - 0.0
04/07:30pm 15.2 12.8 9.9 70 2.8 S 13 17 7 9 1019.1 - 0.0
04/07:15pm 15.2 13.1 9.9 70 2.8 SSE 11 13 6 7 1018.8 - 0.0
04/07:00pm 15.4 13.7 9.7 69 3.0 SE 9 11 5 6 1018.6 - 0.0
04/06:45pm 15.8 14.5 9.8 67 3.1 ESE 7 11 4 6 1018.4 - 0.0
04/06:30pm 16.1 14.8 9.8 66 3.3 E 7 11 4 6 1018.1 - 0.0
04/06:15pm 16.5 15.3 9.6 63 3.6 E 6 11 3 6 1017.9 - 0.0
04/06:00pm 17.1 15.9 9.4 60 4.0 E 6 9 3 5 1017.8 - 0.0
04/05:45pm 17.8 16.3 9.3 57 4.5 ENE 7 9 4 5 1017.6 - 0.0
04/05:30pm 18.4 16.4 8.8 53 5.0 E 9 13 5 7 1017.4 - 0.0
04/05:15pm 18.9 16.5 8.5 51 5.4 ENE 11 13 6 7 1017.1 - 0.0
04/05:00pm 19.5 17.5 8.5 49 5.8 E 9 13 5 7 1017.1 - 0.0
04/04:45pm 20.2 18.3 9.0 48 5.9 ENE 9 13 5 7 1017.1 - 0.0
04/04:30pm 20.7 18.8 9.1 47 6.2 ENE 9 13 5 7 1017.0 - 0.0
04/04:15pm 20.8 18.4 8.7 45 6.4 ENE 11 15 6 8 1016.9 - 0.0
04/04:00pm 21.3 18.9 8.6 44 6.7 NE 11 15 6 8 1016.9 - 0.0
04/03:45pm 22.6 20.4 6.0 34 8.5 NNW 7 15 4 8 1016.9 - 0.0
04/03:30pm 22.8 20.0 5.0 31 8.9 WNW 9 17 5 9 1017.0 - 0.0
04/03:15pm 22.7 20.4 4.9 31 8.9 WNW 6 20 3 11 1017.0 - 0.0
04/03:00pm 22.4 19.5 4.4 31 8.9 WNW 9 17 5 9 1017.1 - 0.0
04/02:45pm 22.8 19.9 4.5 30 9.1 W 9 17 5 9 1017.3 - 0.0
04/02:30pm 22.4 19.9 4.8 31 8.8 W 7 13 4 7 1017.6 - 0.0
04/02:15pm 22.4 20.2 5.1 32 8.7 WSW 6 13 3 7 1017.8 - 0.0
04/02:00pm 22.1 18.9 5.1 33 8.5 W 11 20 6 11 1017.9 - 0.0
04/01:45pm 21.9 18.2 4.6 32 8.5 W 13 22 7 12 1018.2 - 0.0
04/01:30pm 21.7 19.2 4.8 33 8.4 W 7 22 4 12 1018.5 - 0.0
04/01:15pm 21.1 17.0 4.1 32 8.3 W 15 22 8 12 1018.7 - 0.0
04/01:00pm 21.4 18.0 4.1 32 8.4 W 11 28 6 15 1018.8 - 0.0
04/12:45pm 21.3 18.9 4.2 32 8.3 W 6 13 3 7 1019.2 - 0.0
04/12:30pm 20.7 17.3 3.8 33 8.1 WSW 11 17 6 9 1019.4 - 0.0
04/12:15pm 20.3 16.9 3.9 34 7.9 WNW 11 19 6 10 1019.8 - 0.0
04/12:00pm 20.3 17.2 3.8 33 7.9 W 9 20 5 11 1020.1 - 0.0
04/11:45am 20.2 16.9 4.8 36 7.5 WSW 11 22 6 12 1020.4 - 0.0
04/11:30am 19.9 17.1 5.2 38 7.2 W 9 17 5 9 1020.8 - 0.0
04/11:15am 19.4 15.8 5.0 38 7.0 W 13 22 7 12 1021.1 - 0.0
04/11:00am 19.1 15.5 5.2 40 6.8 W 13 20 7 11 1021.3 - 0.0
04/10:45am 19.1 16.0 5.4 40 6.7 W 11 19 6 10 1021.3 - 0.0
04/10:30am 18.9 15.8 5.6 41 6.6 WSW 11 19 6 10 1021.3 - 0.0
04/10:15am 18.6 15.6 5.8 43 6.3 WSW 11 20 6 11 1021.5 - 0.0
04/10:00am 18.5 15.6 6.3 45 6.1 WSW 11 19 6 10 1021.7 - 0.0
04/09:45am 18.0 14.6 6.1 45 5.9 WSW 13 20 7 11 1021.9 - 0.0
04/09:30am 17.4 13.3 6.2 47 5.5 WSW 17 22 9 12 1022.1 - 0.0
04/09:15am 17.0 12.9 6.4 49 5.2 SW 17 24 9 13 1022.4 - 0.0
04/09:00am 16.6 12.2 6.7 52 4.9 SW 19 26 10 14 1022.5 - 0.0
04/08:45am 16.0 11.4 6.7 54 4.6 SW 20 32 11 17 1022.5 - 0.0
04/08:30am 15.6 11.3 6.9 56 4.3 SW 19 30 10 16 1022.5 - 0.0
04/08:15am 15.1 10.6 6.8 57 4.1 SW 20 33 11 18 1022.5 - 0.0
04/08:00am 14.7 10.2 6.8 59 3.9 SW 20 28 11 15 1022.5 - 0.0
04/07:45am 14.2 9.7 6.8 61 3.6 SW 20 28 11 15 1022.4 - 0.0
04/07:30am 13.5 9.1 6.7 63 3.3 SW 19 28 10 15 1022.2 - 0.0
04/07:15am 13.1 8.7 6.5 64 3.2 WSW 19 24 10 13 1022.1 - 0.0
04/07:00am 12.7 8.2 6.3 65 3.1 SW 19 24 10 13 1022.0 - 0.0
04/06:45am 12.4 7.9 6.1 65 3.0 SW 19 24 10 13 1021.9 - 0.0
04/06:30am 12.2 7.5 6.0 66 2.9 WSW 20 26 11 14 1021.7 - 0.0
04/06:15am 12.3 7.6 6.0 65 3.0 SW 20 28 11 15 1021.6 - 0.0
04/06:00am 12.5 7.4 6.2 65 3.0 SW 22 30 12 16 1021.5 - 0.0
04/05:45am 12.0 6.5 6.0 66 2.8 SW 24 32 13 17 1021.3 - 0.0
04/05:30am 11.9 7.1 5.8 66 2.9 SW 20 28 11 15 1021.1 - 0.0
04/05:15am 12.1 7.3 5.8 65 3.0 SW 20 24 11 13 1021.0 - 0.0
04/05:00am 12.3 7.2 6.0 65 3.0 SW 22 30 12 16 1020.8 - 0.0
04/04:45am 12.3 7.2 5.9 65 3.0 SW 22 30 12 16 1020.8 - 0.0
04/04:30am 12.1 7.0 5.8 65 3.0 SW 22 30 12 16 1020.6 - 0.0
04/04:15am 12.0 6.4 5.6 65 3.0 SW 24 30 13 16 1020.4 - 0.0
04/04:00am 12.0 6.4 5.5 64 3.0 SW 24 30 13 16 1020.2 - 0.0
04/03:45am 12.2 7.0 5.4 63 3.2 SW 22 28 12 15 1020.3 - 0.0
04/03:30am 12.4 7.6 5.5 63 3.2 WSW 20 26 11 14 1020.3 - 0.0
04/03:15am 12.5 7.3 5.4 62 3.3 WSW 22 26 12 14 1020.1 - 0.0
04/03:00am 12.7 7.5 5.6 62 3.3 WSW 22 28 12 15 1020.2 - 0.0
04/02:45am 12.5 7.7 5.4 62 3.3 SW 20 26 11 14 1020.3 - 0.0
04/02:30am 12.3 8.0 5.3 62 3.3 SW 17 22 9 12 1020.4 - 0.0
04/02:15am 12.4 7.7 5.1 61 3.4 SW 19 22 10 12 1020.5 - 0.0
04/02:00am 12.9 8.6 5.1 59 3.6 SW 17 24 9 13 1020.6 - 0.0
04/01:45am 13.2 8.0 5.4 59 3.7 SW 22 28 12 15 1020.7 - 0.0
04/01:30am 12.5 7.8 5.2 61 3.4 SW 19 28 10 15 1020.8 - 0.0
04/01:15am 12.9 9.4 5.4 60 3.5 WSW 13 19 7 10 1020.9 - 0.0
04/01:00am 13.1 9.6 5.4 59 3.6 W 13 17 7 9 1020.8 - 0.0
04/12:45am 13.2 9.7 5.3 58 3.7 W 13 17 7 9 1020.9 - 0.0
04/12:30am 13.3 9.4 5.3 58 3.8 W 15 20 8 11 1020.7 - 0.0
04/12:15am 13.5 9.6 5.3 57 3.9 W 15 20 8 11 1020.7 - 0.0
04/12:00am 13.9 9.3 5.4 56 4.0 W 19 22 10 12 1020.7 - 0.0
 
Date/Time
EST
Temp
°C
App
Temp
°C
Dew
Point
°C
Rel
Hum
%
Delta-T
°C
Wind Press
QNH
hPa
Press
MSL
hPa
Rain since
9am
mm
Dir  Spd
km/h
Gust
km/h
Spd
kts
Gust
kts
03/11:45pm 14.1 9.4 5.3 55 4.2 WSW 19 28 10 15 1020.6 - 0.0
03/11:30pm 14.3 9.5 5.4 55 4.2 WSW 20 28 11 15 1020.5 - 0.0
03/11:15pm 14.4 9.8 5.5 55 4.2 WSW 19 28 10 15 1020.4 - 0.0
03/11:00pm 14.4 11.3 5.4 54 4.3 WSW 11 20 6 11 1020.2 - 0.0
03/10:45pm 14.9 11.1 5.7 54 4.4 W 15 24 8 13 1019.9 - 0.0
03/10:30pm 15.2 10.6 5.4 52 4.7 WSW 19 30 10 16 1019.9 - 0.0
03/10:15pm 15.4 9.4 5.4 51 4.8 WSW 26 41 14 22 1019.7 - 0.0
03/10:00pm 15.5 8.8 5.6 51 4.8 WSW 30 41 16 22 1019.6 - 0.0
03/09:45pm 15.5 9.2 5.8 52 4.7 SW 28 39 15 21 1019.5 - 0.0
03/09:30pm 15.5 10.4 5.8 52 4.7 SW 22 32 12 17 1019.4 - 0.0
03/09:15pm 15.6 10.8 5.7 51 4.8 SW 20 30 11 16 1019.1 - 0.0
03/09:00pm 15.8 11.6 5.5 50 5.0 SSW 17 24 9 13 1018.8 - 0.0
03/08:45pm 16.2 12.6 5.2 48 5.3 SSW 13 22 7 12 1018.4 - 0.0
03/08:30pm 17.0 12.7 5.1 45 5.7 SSW 17 24 9 13 1018.0 - 0.0
03/08:15pm 17.4 12.5 4.9 43 6.0 SW 20 33 11 18 1017.8 - 0.0
03/08:00pm 17.6 12.8 4.4 41 6.3 SW 19 28 10 15 1017.4 - 0.0
03/07:45pm 18.0 13.4 3.8 39 6.7 SW 17 22 9 12 1017.0 - 0.0
03/07:30pm 18.3 13.1 3.3 37 7.0 SW 20 30 11 16 1016.5 - 0.0
03/07:15pm 18.6 12.9 2.8 35 7.4 SW 22 30 12 16 1016.1 - 0.0
03/07:00pm 19.2 13.9 2.9 34 7.6 WSW 20 30 11 16 1015.9 - 0.0
03/06:45pm 19.7 15.8 3.3 33 7.8 WSW 13 19 7 10 1015.8 - 0.0
03/06:30pm 20.0 16.9 3.4 33 7.9 WSW 9 19 5 10 1015.4 - 0.0
03/06:15pm 20.4 15.7 3.0 31 8.2 WSW 17 30 9 16 1014.9 - 0.0
03/06:00pm 20.9 15.2 2.6 30 8.6 WSW 22 33 12 18 1014.5 - 0.0
03/05:45pm 21.3 15.1 2.3 28 8.9 WSW 24 33 13 18 1014.2 - 0.0
03/05:30pm 21.7 15.5 2.0 27 9.2 WSW 24 37 13 20 1014.0 - 0.0
03/05:15pm 22.3 16.8 2.1 26 9.5 WSW 20 37 11 20 1013.8 - 0.0
03/05:00pm 22.8 17.3 2.0 25 9.8 WSW 20 33 11 18 1013.5 - 0.0
03/04:45pm 23.1 17.2 1.9 25 10.0 WSW 22 37 12 20 1013.1 - 0.0
03/04:30pm 23.5 16.8 1.7 24 10.3 WSW 26 44 14 24 1012.8 - 0.0
03/04:15pm 23.9 17.4 2.4 24 10.3 WSW 26 39 14 21 1012.6 - 0.0
03/04:00pm 24.0 17.0 1.8 23 10.6 WSW 28 41 15 22 1012.3 - 0.0
03/03:45pm 24.2 16.8 1.9 23 10.6 W 30 48 16 26 1012.2 - 0.0
03/03:30pm 24.2 15.8 1.3 22 10.8 W 35 52 19 28 1012.0 - 0.0
03/03:15pm 24.4 16.6 2.0 23 10.7 WSW 32 46 17 25 1012.0 - 0.0
03/03:00pm 24.6 17.4 2.9 24 10.6 WSW 30 50 16 27 1012.0 - 0.0
03/02:45pm 24.6 18.4 4.2 26 10.2 W 26 37 14 20 1011.8 - 0.0
03/02:30pm 24.5 17.5 3.9 26 10.2 WSW 30 44 16 24 1011.5 - 0.0
03/02:15pm 24.4 16.9 3.3 25 10.3 WSW 32 46 17 25 1011.4 - 0.0
03/02:00pm 24.5 17.3 3.1 25 10.5 WSW 30 44 16 24 1011.4 - 0.0
03/01:45pm 24.6 17.6 4.0 26 10.2 WSW 30 48 16 26 1011.5 - 0.0
03/01:30pm 24.6 18.2 5.1 28 9.9 WSW 28 43 15 23 1011.3 - 0.0
03/01:15pm 24.2 17.5 5.5 30 9.5 WSW 30 46 16 25 1011.3 - 0.0
03/01:00pm 24.1 16.8 5.4 30 9.5 WSW 33 44 18 24 1011.4 - 0.0
03/12:45pm 24.2 18.0 6.0 31 9.4 WSW 28 50 15 27 1011.5 - 0.0
03/12:30pm 24.2 17.5 5.6 30 9.5 WSW 30 52 16 28 1011.4 - 0.0
03/12:15pm 24.2 18.1 6.6 32 9.2 WSW 28 48 15 26 1011.3 - 0.0
03/12:00pm 24.2 17.8 6.8 32 9.1 SW 30 44 16 24 1011.3 - 0.0
03/11:45am 24.4 19.0 7.9 35 8.8 SW 26 44 14 24 1011.4 - 0.0
03/11:30am 24.3 18.4 7.3 33 9.0 SW 28 44 15 24 1011.4 - 0.0
03/11:15am 24.3 17.9 7.1 33 9.0 SW 30 44 16 24 1011.3 - 0.0
03/11:00am 24.1 17.8 7.2 33 8.9 SW 30 44 16 24 1011.2 - 0.0
03/10:45am 24.1 18.3 8.0 35 8.6 SW 28 43 15 23 1011.2 - 0.0
03/10:30am 24.4 21.0 9.1 37 8.3 W 17 28 9 15 1011.0 - 0.0
03/10:15am 23.9 19.8 8.7 38 8.2 WSW 20 30 11 16 1010.8 - 0.0
03/10:00am 23.5 19.7 9.0 39 7.8 W 19 30 10 16 1010.8 - 0.0
03/09:45am 23.3 20.3 9.3 41 7.6 WNW 15 24 8 13 1010.8 - 0.0
03/09:30am 22.8 20.3 9.6 43 7.2 WNW 13 24 7 13 1010.5 - 0.0
03/09:15am 22.2 19.4 10.0 46 6.7 WNW 15 24 8 13 1010.4 - 0.0
03/09:00am 21.2 17.6 9.9 48 6.1 WNW 19 28 10 15 1010.4 - 0.0
03/08:45am 20.4 17.6 9.9 51 5.7 WNW 15 24 8 13 1010.3 - 0.0
03/08:30am 19.7 16.8 9.7 52 5.4 WNW 15 20 8 11 1010.3 - 0.0
03/08:15am 19.4 17.3 9.8 53 5.1 NW 11 20 6 11 1010.3 - 0.0
03/08:00am 19.0 16.1 9.7 54 5.0 NW 15 26 8 14 1010.2 - 0.0
03/07:45am 18.4 15.6 10.1 58 4.5 NW 15 22 8 12 1010.2 - 0.0
03/07:30am 17.8 15.3 9.7 59 4.3 NW 13 17 7 9 1010.3 - 0.0
03/07:15am 17.7 14.8 9.7 59 4.2 NW 15 20 8 11 1010.2 - 0.0
03/07:00am 16.9 14.0 9.7 62 3.8 NW 15 20 8 11 1010.1 - 0.0
03/06:45am 15.6 12.9 9.0 65 3.4 NNW 13 17 7 9 1010.0 - 0.0
03/06:30am 15.9 13.6 8.9 63 3.6 NNW 11 13 6 7 1010.1 - 0.0
03/06:15am 16.3 13.6 8.9 61 3.8 NNW 13 17 7 9 1010.3 - 0.0
03/06:00am 16.4 12.9 8.9 61 3.9 NNW 17 20 9 11 1010.2 - 0.0
03/05:45am 16.5 13.4 8.8 60 4.0 NNW 15 20 8 11 1010.1 - 0.0
03/05:30am 16.7 13.6 8.9 60 4.0 NNW 15 24 8 13 1010.2 - 0.0
03/05:15am 17.2 13.8 9.0 58 4.3 NNW 17 20 9 11 1010.3 - 0.0
03/05:00am 17.9 14.4 8.8 55 4.7 NW 17 20 9 11 1010.8 - 0.0
03/04:45am 17.8 15.0 8.7 55 4.7 WNW 13 19 7 10 1011.0 - 0.0
03/04:30am 17.9 15.5 8.7 55 4.8 W 11 17 6 9 1011.3 - 0.0
03/04:15am 18.3 14.9 9.1 55 4.8 W 17 22 9 12 1012.0 - 0.0
03/04:00am 18.8 14.9 8.7 52 5.3 WNW 19 20 10 11 1011.9 - 0.0
03/03:45am 18.5 14.6 8.5 52 5.2 NW 19 22 10 12 1011.2 - 0.0
03/03:30am 18.4 15.2 8.5 52 5.1 NW 15 20 8 11 1011.1 - 0.0
03/03:15am 18.1 14.2 8.5 53 5.0 NW 19 24 10 13 1011.3 - 0.0
03/03:00am 17.8 12.9 8.4 54 4.9 NW 24 30 13 16 1011.5 - 0.0
03/02:45am 18.0 13.8 8.4 53 5.0 WNW 20 24 11 13 1011.8 - 0.0
03/02:30am 18.0 13.4 8.3 53 5.0 NW 22 26 12 14 1012.1 - 0.0
03/02:15am 18.0 13.8 8.3 53 5.0 NW 20 24 11 13 1012.4 - 0.0
03/02:00am 17.9 14.3 8.3 53 5.0 NW 17 20 9 11 1012.6 - 0.0
03/01:45am 18.0 14.0 8.2 52 5.1 NW 19 22 10 12 1012.7 - 0.0
03/01:30am 17.9 14.3 8.2 53 5.0 NW 17 20 9 11 1012.8 - 0.0
03/01:15am 17.8 14.2 8.2 53 4.9 NW 17 20 9 11 1013.0 - 0.0
03/01:00am 17.7 14.1 8.2 53 4.9 NW 17 20 9 11 1013.1 - 0.0
03/12:45am 17.9 14.2 8.1 52 5.0 NW 17 20 9 11 1013.3 - 0.0
03/12:30am 18.0 14.3 8.0 52 5.1 NW 17 20 9 11 1013.4 - 0.0
03/12:15am 18.3 14.2 8.0 51 5.3 NW 19 22 10 12 1013.6 - 0.0
03/12:00am 17.9 13.7 8.1 52 5.0 NW 20 24 11 13 1013.7 - 0.0
 
Date/Time
EST
Temp
°C
App
Temp
°C
Dew
Point
°C
Rel
Hum
%
Delta-T
°C
Wind Press
QNH
hPa
Press
MSL
hPa
Rain since
9am
mm
Dir  Spd
km/h
Gust
km/h
Spd
kts
Gust
kts
02/11:45pm 17.1 13.0 7.7 54 4.8 NW 19 24 10 13 1013.8 - 0.0
02/11:30pm 18.0 14.6 7.8 51 5.2 NW 15 20 8 11 1013.9 - 0.0
02/11:15pm 18.2 14.5 7.9 51 5.3 NW 17 20 9 11 1014.1 - 0.0
02/11:00pm 17.5 13.4 8.0 53 4.9 NW 19 20 10 11 1014.3 - 0.0
02/10:45pm 15.7 11.8 7.3 57 4.2 NW 17 20 9 11 1014.5 - 0.0
02/10:30pm 16.4 13.3 7.2 54 4.6 WNW 13 19 7 10 1014.6 - 0.0
02/10:15pm 17.8 14.3 7.3 50 5.3 WNW 15 19 8 10 1014.8 - 0.0
02/10:00pm 18.9 15.5 7.6 48 5.8 WNW 15 19 8 10 1014.8 - 0.0
02/09:45pm 17.4 13.9 7.2 51 5.1 WNW 15 20 8 11 1014.9 - 0.0
02/09:30pm 17.2 14.0 7.0 51 5.1 WNW 13 17 7 9 1014.9 - 0.0
02/09:15pm 18.4 15.6 6.9 47 5.8 WNW 11 13 6 7 1015.0 - 0.0
02/09:00pm 19.4 16.6 6.8 44 6.4 W 11 17 6 9 1015.0 - 0.0
02/08:45pm 19.8 16.6 6.7 42 6.6 W 13 17 7 9 1015.1 - 0.0
02/08:30pm 19.9 16.6 6.6 42 6.7 W 13 19 7 10 1014.9 - 0.0
02/08:15pm 20.5 16.5 6.8 41 7.0 W 17 24 9 13 1014.9 - 0.0
02/08:00pm 20.9 17.3 6.7 39 7.2 W 15 22 8 12 1014.7 - 0.0
02/07:45pm 21.2 16.3 6.7 39 7.4 W 22 30 12 16 1014.7 - 0.0
02/07:30pm 21.6 17.1 7.0 39 7.5 W 20 26 11 14 1014.7 - 0.0
02/07:15pm 21.3 17.4 7.1 40 7.3 W 17 20 9 11 1014.5 - 0.0
02/07:00pm 21.1 18.7 7.0 40 7.2 W 9 13 5 7 1014.3 - 0.0
02/06:45pm 21.6 18.4 7.0 39 7.5 W 13 19 7 10 1014.2 - 0.0
02/06:30pm 21.7 18.5 6.9 38 7.6 WSW 13 19 7 10 1014.0 - 0.0
02/06:15pm 21.9 19.5 7.1 38 7.7 WSW 9 13 5 7 1013.9 - 0.0

Latest Capital City Observations: Canberra | Sydney | Melbourne | Brisbane | Adelaide | Perth | Hobart | Darwin

Other formats

Comma delimited format used in spreadsheet applications
http://www.bom.gov.au/fwo/IDN60901/IDN60901.95757.axf

JavaScript Object Notation format (JSON) in row-major order
http://www.bom.gov.au/fwo/IDN60901/IDN60901.95757.json

Data quality

Most of these data are generated automatically and are frequently updated. Quality checks on data are not normally performed. It is possible for incorrect values to appear. Refer to information at About Latest Weather Observations and please check the disclaimer before using these data.